sensor_id;sensor_type;location;lat;lon;timestamp;pressure;altitude;pressure_sealevel;temperature;humidity
26539;BME280;14205;43.200;24.170;2022-08-03T00:01:17;99846.34;;;21.12;64.65
26539;BME280;14205;43.200;24.170;2022-08-03T00:03:43;99845.19;;;21.08;64.47
26539;BME280;14205;43.200;24.170;2022-08-03T00:06:09;99846.81;;;21.09;64.62
26539;BME280;14205;43.200;24.170;2022-08-03T00:08:34;99847.03;;;21.19;64.43
26539;BME280;14205;43.200;24.170;2022-08-03T00:11:00;99849.00;;;21.12;64.91
26539;BME280;14205;43.200;24.170;2022-08-03T00:13:26;99845.75;;;21.10;64.71
26539;BME280;14205;43.200;24.170;2022-08-03T00:15:52;99837.75;;;21.10;64.90
26539;BME280;14205;43.200;24.170;2022-08-03T00:18:17;99844.72;;;21.11;65.03
26539;BME280;14205;43.200;24.170;2022-08-03T00:20:43;99840.91;;;21.07;64.84
26539;BME280;14205;43.200;24.170;2022-08-03T00:23:08;99835.34;;;21.09;65.04
26539;BME280;14205;43.200;24.170;2022-08-03T00:25:35;99837.06;;;21.03;65.38
26539;BME280;14205;43.200;24.170;2022-08-03T00:28:01;99835.94;;;20.88;65.79
26539;BME280;14205;43.200;24.170;2022-08-03T00:30:27;99840.22;;;20.89;66.03
26539;BME280;14205;43.200;24.170;2022-08-03T00:32:53;99842.56;;;20.86;65.94
26539;BME280;14205;43.200;24.170;2022-08-03T00:35:18;99842.66;;;20.91;65.61
26539;BME280;14205;43.200;24.170;2022-08-03T00:37:44;99842.88;;;20.89;65.84
26539;BME280;14205;43.200;24.170;2022-08-03T00:40:11;99839.88;;;20.86;65.84
26539;BME280;14205;43.200;24.170;2022-08-03T00:42:51;99840.31;;;20.83;66.11
26539;BME280;14205;43.200;24.170;2022-08-03T00:45:19;99846.25;;;20.73;66.71
26539;BME280;14205;43.200;24.170;2022-08-03T00:47:46;99840.94;;;20.73;66.91
26539;BME280;14205;43.200;24.170;2022-08-03T00:50:12;99854.38;;;20.78;66.46
26539;BME280;14205;43.200;24.170;2022-08-03T00:52:38;99850.78;;;20.62;67.08
26539;BME280;14205;43.200;24.170;2022-08-03T00:55:04;99853.47;;;20.62;66.88
26539;BME280;14205;43.200;24.170;2022-08-03T00:57:31;99857.22;;;20.54;67.47
26539;BME280;14205;43.200;24.170;2022-08-03T00:59:57;99860.94;;;20.53;66.69
26539;BME280;14205;43.200;24.170;2022-08-03T01:02:24;99857.91;;;20.50;67.05
26539;BME280;14205;43.200;24.170;2022-08-03T01:04:50;99859.09;;;20.42;67.34
26539;BME280;14205;43.200;24.170;2022-08-03T01:10:23;99853.13;;;20.29;67.78
26539;BME280;14205;43.200;24.170;2022-08-03T01:13:13;99851.84;;;20.20;68.40
26539;BME280;14205;43.200;24.170;2022-08-03T01:18:17;99856.72;;;20.23;68.62
26539;BME280;14205;43.200;24.170;2022-08-03T01:20:48;99854.75;;;20.19;68.75
26539;BME280;14205;43.200;24.170;2022-08-03T01:26:11;99852.22;;;20.24;68.20
26539;BME280;14205;43.200;24.170;2022-08-03T01:29:02;99864.84;;;20.28;68.48
26539;BME280;14205;43.200;24.170;2022-08-03T01:31:57;99863.44;;;20.26;69.17
26539;BME280;14205;43.200;24.170;2022-08-03T01:34:40;99854.88;;;20.24;69.05
26539;BME280;14205;43.200;24.170;2022-08-03T01:37:08;99863.66;;;20.13;69.52
26539;BME280;14205;43.200;24.170;2022-08-03T01:39:36;99859.25;;;20.18;69.74
26539;BME280;14205;43.200;24.170;2022-08-03T01:42:06;99858.75;;;20.10;69.71
26539;BME280;14205;43.200;24.170;2022-08-03T01:44:40;99853.31;;;20.05;69.69
26539;BME280;14205;43.200;24.170;2022-08-03T01:47:08;99854.47;;;20.09;69.90
26539;BME280;14205;43.200;24.170;2022-08-03T01:49:39;99857.72;;;20.11;69.81
26539;BME280;14205;43.200;24.170;2022-08-03T01:52:07;99854.38;;;20.15;70.01
26539;BME280;14205;43.200;24.170;2022-08-03T01:54:35;99863.75;;;20.06;69.87
26539;BME280;14205;43.200;24.170;2022-08-03T01:57:02;99859.91;;;20.02;70.39
26539;BME280;14205;43.200;24.170;2022-08-03T01:59:29;99860.94;;;20.01;70.61
26539;BME280;14205;43.200;24.170;2022-08-03T02:01:57;99864.56;;;20.07;70.49
26539;BME280;14205;43.200;24.170;2022-08-03T02:04:24;99861.69;;;20.08;70.35
26539;BME280;14205;43.200;24.170;2022-08-03T02:06:51;99862.56;;;20.02;70.84
26539;BME280;14205;43.200;24.170;2022-08-03T02:09:19;99862.34;;;20.04;70.58
26539;BME280;14205;43.200;24.170;2022-08-03T02:11:45;99858.06;;;20.03;70.72
26539;BME280;14205;43.200;24.170;2022-08-03T02:14:11;99854.91;;;19.95;70.78
26539;BME280;14205;43.200;24.170;2022-08-03T02:16:39;99857.81;;;19.93;71.03
26539;BME280;14205;43.200;24.170;2022-08-03T02:19:06;99865.13;;;19.80;71.52
26539;BME280;14205;43.200;24.170;2022-08-03T02:21:35;99860.19;;;19.83;71.23
26539;BME280;14205;43.200;24.170;2022-08-03T02:24:02;99862.38;;;19.86;71.31
26539;BME280;14205;43.200;24.170;2022-08-03T02:26:29;99868.41;;;19.82;71.56
26539;BME280;14205;43.200;24.170;2022-08-03T02:28:58;99866.69;;;19.69;72.13
26539;BME280;14205;43.200;24.170;2022-08-03T02:31:28;99865.38;;;19.78;71.34
26539;BME280;14205;43.200;24.170;2022-08-03T02:33:59;99873.53;;;19.65;71.74
26539;BME280;14205;43.200;24.170;2022-08-03T02:36:28;99877.78;;;19.66;71.66
26539;BME280;14205;43.200;24.170;2022-08-03T02:38:58;99868.03;;;19.60;71.74
26539;BME280;14205;43.200;24.170;2022-08-03T02:41:29;99876.69;;;19.56;71.94
26539;BME280;14205;43.200;24.170;2022-08-03T02:43:57;99869.03;;;19.30;72.98
26539;BME280;14205;43.200;24.170;2022-08-03T02:46:27;99866.75;;;19.16;73.70
26539;BME280;14205;43.200;24.170;2022-08-03T02:48:55;99865.84;;;19.22;73.82
26539;BME280;14205;43.200;24.170;2022-08-03T02:51:23;99866.50;;;19.18;73.72
26539;BME280;14205;43.200;24.170;2022-08-03T02:53:49;99865.03;;;19.04;74.64
26539;BME280;14205;43.200;24.170;2022-08-03T02:56:17;99861.44;;;18.92;75.06
26539;BME280;14205;43.200;24.170;2022-08-03T02:58:44;99862.34;;;18.86;75.17
26539;BME280;14205;43.200;24.170;2022-08-03T03:01:14;99869.03;;;18.95;74.93
26539;BME280;14205;43.200;24.170;2022-08-03T03:03:40;99869.97;;;19.00;74.93
26539;BME280;14205;43.200;24.170;2022-08-03T03:06:07;99869.47;;;19.10;74.78
26539;BME280;14205;43.200;24.170;2022-08-03T03:08:33;99866.69;;;19.23;74.28
26539;BME280;14205;43.200;24.170;2022-08-03T03:11:00;99877.81;;;19.31;73.65
26539;BME280;14205;43.200;24.170;2022-08-03T03:13:28;99875.91;;;19.38;73.28
26539;BME280;14205;43.200;24.170;2022-08-03T03:15:55;99876.94;;;19.37;72.91
26539;BME280;14205;43.200;24.170;2022-08-03T03:18:22;99885.97;;;19.36;72.98
26539;BME280;14205;43.200;24.170;2022-08-03T03:20:51;99888.75;;;19.41;73.05
26539;BME280;14205;43.200;24.170;2022-08-03T03:23:17;99889.34;;;19.43;73.06
26539;BME280;14205;43.200;24.170;2022-08-03T03:25:44;99895.41;;;19.32;73.37
26539;BME280;14205;43.200;24.170;2022-08-03T03:28:10;99891.69;;;19.33;73.31
26539;BME280;14205;43.200;24.170;2022-08-03T03:30:36;99883.50;;;19.34;73.28
26539;BME280;14205;43.200;24.170;2022-08-03T03:33:02;99894.69;;;19.25;73.59
26539;BME280;14205;43.200;24.170;2022-08-03T03:35:28;99896.69;;;19.29;73.39
26539;BME280;14205;43.200;24.170;2022-08-03T03:37:54;99887.56;;;19.19;73.71
26539;BME280;14205;43.200;24.170;2022-08-03T03:40:20;99900.56;;;19.09;74.15
26539;BME280;14205;43.200;24.170;2022-08-03T03:42:46;99901.75;;;19.13;73.68
26539;BME280;14205;43.200;24.170;2022-08-03T03:45:12;99903.06;;;19.04;74.28
26539;BME280;14205;43.200;24.170;2022-08-03T03:47:37;99909.97;;;18.88;75.06
26539;BME280;14205;43.200;24.170;2022-08-03T03:50:04;99915.97;;;18.77;75.80
26539;BME280;14205;43.200;24.170;2022-08-03T03:52:31;99923.38;;;18.75;75.97
26539;BME280;14205;43.200;24.170;2022-08-03T03:54:57;99917.25;;;18.74;76.05
26539;BME280;14205;43.200;24.170;2022-08-03T03:57:22;99922.50;;;18.81;75.96
26539;BME280;14205;43.200;24.170;2022-08-03T03:59:47;99922.66;;;18.86;75.80
26539;BME280;14205;43.200;24.170;2022-08-03T04:02:13;99931.41;;;18.92;75.77
26539;BME280;14205;43.200;24.170;2022-08-03T04:04:39;99918.13;;;18.92;75.60
26539;BME280;14205;43.200;24.170;2022-08-03T04:07:24;99924.66;;;18.90;75.38
26539;BME280;14205;43.200;24.170;2022-08-03T04:10:15;99937.31;;;18.94;75.73
26539;BME280;14205;43.200;24.170;2022-08-03T04:13:02;99929.69;;;19.04;74.98
26539;BME280;14205;43.200;24.170;2022-08-03T04:15:32;99933.69;;;19.13;74.72
26539;BME280;14205;43.200;24.170;2022-08-03T04:18:00;99926.44;;;19.20;74.40
26539;BME280;14205;43.200;24.170;2022-08-03T04:20:29;99931.94;;;19.25;74.45
26539;BME280;14205;43.200;24.170;2022-08-03T04:22:57;99929.41;;;19.30;74.33
26539;BME280;14205;43.200;24.170;2022-08-03T04:25:30;99933.53;;;19.26;74.11
26539;BME280;14205;43.200;24.170;2022-08-03T04:27:59;99939.25;;;19.29;73.56
26539;BME280;14205;43.200;24.170;2022-08-03T04:30:27;99930.28;;;19.24;73.78
26539;BME280;14205;43.200;24.170;2022-08-03T04:32:56;99939.06;;;19.25;73.85
26539;BME280;14205;43.200;24.170;2022-08-03T04:35:24;99936.28;;;19.37;73.54
26539;BME280;14205;43.200;24.170;2022-08-03T04:37:51;99933.13;;;19.29;73.91
26539;BME280;14205;43.200;24.170;2022-08-03T04:40:24;99933.25;;;19.52;72.98
26539;BME280;14205;43.200;24.170;2022-08-03T04:42:53;99945.16;;;19.49;73.16
26539;BME280;14205;43.200;24.170;2022-08-03T04:45:20;99951.59;;;19.60;73.11
26539;BME280;14205;43.200;24.170;2022-08-03T04:47:46;99951.25;;;19.74;72.78
26539;BME280;14205;43.200;24.170;2022-08-03T04:50:12;99960.78;;;19.81;72.35
26539;BME280;14205;43.200;24.170;2022-08-03T04:52:37;99961.34;;;20.01;71.82
26539;BME280;14205;43.200;24.170;2022-08-03T04:55:03;99964.91;;;20.13;70.52
26539;BME280;14205;43.200;24.170;2022-08-03T04:57:29;99962.34;;;20.18;70.36
26539;BME280;14205;43.200;24.170;2022-08-03T04:59:54;99966.78;;;20.24;70.53
26539;BME280;14205;43.200;24.170;2022-08-03T05:02:21;99968.59;;;20.41;70.08
26539;BME280;14205;43.200;24.170;2022-08-03T05:04:47;99964.88;;;20.42;69.96
26539;BME280;14205;43.200;24.170;2022-08-03T05:07:13;99977.53;;;20.46;69.94
26539;BME280;14205;43.200;24.170;2022-08-03T05:09:39;99977.50;;;20.64;69.34
26539;BME280;14205;43.200;24.170;2022-08-03T05:12:05;99979.97;;;20.77;68.48
26539;BME280;14205;43.200;24.170;2022-08-03T05:14:31;99975.56;;;20.82;68.17
26539;BME280;14205;43.200;24.170;2022-08-03T05:16:57;99979.97;;;20.77;68.94
26539;BME280;14205;43.200;24.170;2022-08-03T05:19:22;99983.34;;;20.95;68.33
26539;BME280;14205;43.200;24.170;2022-08-03T05:21:48;99989.41;;;21.13;67.85
26539;BME280;14205;43.200;24.170;2022-08-03T05:24:13;99984.88;;;21.25;67.59
26539;BME280;14205;43.200;24.170;2022-08-03T05:26:39;99987.38;;;21.49;67.01
26539;BME280;14205;43.200;24.170;2022-08-03T05:29:04;99993.94;;;21.69;65.78
26539;BME280;14205;43.200;24.170;2022-08-03T05:31:30;99997.63;;;21.91;65.11
26539;BME280;14205;43.200;24.170;2022-08-03T05:33:55;99989.81;;;22.12;63.92
26539;BME280;14205;43.200;24.170;2022-08-03T05:36:21;99996.50;;;22.26;63.46
26539;BME280;14205;43.200;24.170;2022-08-03T05:38:46;100001.88;;;22.42;62.50
26539;BME280;14205;43.200;24.170;2022-08-03T05:41:12;100004.19;;;22.50;62.93
26539;BME280;14205;43.200;24.170;2022-08-03T05:43:37;100003.66;;;22.65;62.35
26539;BME280;14205;43.200;24.170;2022-08-03T05:46:03;99998.41;;;22.70;62.47
26539;BME280;14205;43.200;24.170;2022-08-03T05:48:28;100006.84;;;22.78;62.89
26539;BME280;14205;43.200;24.170;2022-08-03T05:50:54;100004.84;;;22.85;62.18
26539;BME280;14205;43.200;24.170;2022-08-03T05:53:19;100014.66;;;22.96;62.14
26539;BME280;14205;43.200;24.170;2022-08-03T05:55:44;100006.81;;;23.06;62.24
26539;BME280;14205;43.200;24.170;2022-08-03T05:58:10;100016.28;;;23.13;62.07
26539;BME280;14205;43.200;24.170;2022-08-03T06:00:35;100018.31;;;23.06;60.90
26539;BME280;14205;43.200;24.170;2022-08-03T06:03:01;100018.16;;;23.12;60.90
26539;BME280;14205;43.200;24.170;2022-08-03T06:05:27;100019.06;;;23.02;60.59
26539;BME280;14205;43.200;24.170;2022-08-03T06:07:53;100026.19;;;22.96;61.33
26539;BME280;14205;43.200;24.170;2022-08-03T06:10:18;100023.75;;;22.95;61.68
26539;BME280;14205;43.200;24.170;2022-08-03T06:12:44;100032.75;;;22.77;62.10
26539;BME280;14205;43.200;24.170;2022-08-03T06:15:13;100042.66;;;22.77;62.31
26539;BME280;14205;43.200;24.170;2022-08-03T06:17:49;100031.13;;;22.88;62.31
26539;BME280;14205;43.200;24.170;2022-08-03T06:20:17;100031.22;;;22.93;62.39
26539;BME280;14205;43.200;24.170;2022-08-03T06:22:44;100033.09;;;23.08;62.42
26539;BME280;14205;43.200;24.170;2022-08-03T06:25:09;100032.19;;;23.19;61.69
26539;BME280;14205;43.200;24.170;2022-08-03T06:27:34;100032.16;;;23.52;60.17
26539;BME280;14205;43.200;24.170;2022-08-03T06:30:07;100037.31;;;23.70;58.37
26539;BME280;14205;43.200;24.170;2022-08-03T06:32:37;100035.56;;;24.01;58.03
26539;BME280;14205;43.200;24.170;2022-08-03T06:35:05;100035.13;;;24.47;57.96
26539;BME280;14205;43.200;24.170;2022-08-03T06:37:30;100036.28;;;24.82;56.14
26539;BME280;14205;43.200;24.170;2022-08-03T06:39:56;100043.34;;;25.18;54.55
26539;BME280;14205;43.200;24.170;2022-08-03T06:42:21;100046.25;;;25.43;54.22
26539;BME280;14205;43.200;24.170;2022-08-03T06:44:47;100042.44;;;25.34;53.85
26539;BME280;14205;43.200;24.170;2022-08-03T06:47:12;100036.34;;;25.89;51.59
26539;BME280;14205;43.200;24.170;2022-08-03T06:49:37;100034.41;;;26.21;50.27
26539;BME280;14205;43.200;24.170;2022-08-03T06:52:05;100032.91;;;26.59;50.16
26539;BME280;14205;43.200;24.170;2022-08-03T06:54:30;100041.06;;;26.89;49.85
26539;BME280;14205;43.200;24.170;2022-08-03T06:56:55;100038.44;;;27.48;47.76
26539;BME280;14205;43.200;24.170;2022-08-03T06:59:21;100032.47;;;27.61;48.10
26539;BME280;14205;43.200;24.170;2022-08-03T07:01:46;100039.16;;;27.88;46.70
26539;BME280;14205;43.200;24.170;2022-08-03T07:04:12;100031.56;;;27.95;46.59
26539;BME280;14205;43.200;24.170;2022-08-03T07:06:37;100041.06;;;27.78;46.25
26539;BME280;14205;43.200;24.170;2022-08-03T07:09:03;100044.31;;;27.65;44.26
26539;BME280;14205;43.200;24.170;2022-08-03T07:11:29;100038.91;;;27.85;44.11
26539;BME280;14205;43.200;24.170;2022-08-03T07:13:54;100039.94;;;27.89;43.57
26539;BME280;14205;43.200;24.170;2022-08-03T07:16:20;100035.06;;;28.10;42.98
26539;BME280;14205;43.200;24.170;2022-08-03T07:18:46;100035.63;;;28.12;41.69
26539;BME280;14205;43.200;24.170;2022-08-03T07:21:11;100038.81;;;28.19;42.20
26539;BME280;14205;43.200;24.170;2022-08-03T07:23:37;100044.22;;;28.14;43.26
26539;BME280;14205;43.200;24.170;2022-08-03T07:26:03;100044.31;;;27.85;43.24
26539;BME280;14205;43.200;24.170;2022-08-03T07:28:28;100043.94;;;28.16;43.21
26539;BME280;14205;43.200;24.170;2022-08-03T07:30:54;100045.81;;;28.25;42.88
26539;BME280;14205;43.200;24.170;2022-08-03T07:33:19;100047.41;;;28.26;42.70
26539;BME280;14205;43.200;24.170;2022-08-03T07:35:45;100047.47;;;28.11;43.08
26539;BME280;14205;43.200;24.170;2022-08-03T07:38:10;100053.09;;;28.30;42.40
26539;BME280;14205;43.200;24.170;2022-08-03T07:40:36;100049.97;;;28.61;42.48
26539;BME280;14205;43.200;24.170;2022-08-03T07:43:01;100049.00;;;28.90;41.99
26539;BME280;14205;43.200;24.170;2022-08-03T07:45:29;100056.09;;;29.19;41.79
26539;BME280;14205;43.200;24.170;2022-08-03T07:47:54;100055.22;;;29.28;40.78
26539;BME280;14205;43.200;24.170;2022-08-03T07:50:20;100057.75;;;29.48;41.22
26539;BME280;14205;43.200;24.170;2022-08-03T07:52:46;100059.47;;;29.39;39.74
26539;BME280;14205;43.200;24.170;2022-08-03T07:55:12;100049.94;;;29.13;39.46
26539;BME280;14205;43.200;24.170;2022-08-03T07:57:38;100056.63;;;29.21;39.81
26539;BME280;14205;43.200;24.170;2022-08-03T08:00:06;100050.50;;;29.43;39.80
26539;BME280;14205;43.200;24.170;2022-08-03T08:02:35;100056.19;;;29.70;40.23
26539;BME280;14205;43.200;24.170;2022-08-03T08:05:00;100052.94;;;29.07;40.35
26539;BME280;14205;43.200;24.170;2022-08-03T08:07:26;100059.66;;;29.14;40.68
26539;BME280;14205;43.200;24.170;2022-08-03T08:09:51;100055.19;;;28.90;42.04
26539;BME280;14205;43.200;24.170;2022-08-03T08:12:17;100060.13;;;28.83;41.68
26539;BME280;14205;43.200;24.170;2022-08-03T08:14:42;100067.91;;;29.33;39.58
26539;BME280;14205;43.200;24.170;2022-08-03T08:17:11;100064.41;;;29.60;38.92
26539;BME280;14205;43.200;24.170;2022-08-03T08:19:36;100061.38;;;29.67;37.41
26539;BME280;14205;43.200;24.170;2022-08-03T08:22:02;100065.25;;;29.56;37.86
26539;BME280;14205;43.200;24.170;2022-08-03T08:24:27;100073.16;;;29.80;36.95
26539;BME280;14205;43.200;24.170;2022-08-03T08:26:55;100067.19;;;29.83;36.49
26539;BME280;14205;43.200;24.170;2022-08-03T08:29:20;100068.66;;;30.17;36.58
26539;BME280;14205;43.200;24.170;2022-08-03T08:31:48;100062.47;;;30.40;35.13
26539;BME280;14205;43.200;24.170;2022-08-03T08:34:14;100060.25;;;30.65;34.63
26539;BME280;14205;43.200;24.170;2022-08-03T08:36:40;100064.19;;;30.77;34.79
26539;BME280;14205;43.200;24.170;2022-08-03T08:39:06;100065.94;;;30.45;35.68
26539;BME280;14205;43.200;24.170;2022-08-03T08:41:32;100051.75;;;30.30;35.21
26539;BME280;14205;43.200;24.170;2022-08-03T08:44:01;100051.72;;;30.53;36.41
26539;BME280;14205;43.200;24.170;2022-08-03T08:46:28;100054.00;;;30.46;35.61
26539;BME280;14205;43.200;24.170;2022-08-03T08:48:56;100052.00;;;30.34;35.24
26539;BME280;14205;43.200;24.170;2022-08-03T08:51:27;100058.50;;;30.74;35.05
26539;BME280;14205;43.200;24.170;2022-08-03T08:53:54;100057.34;;;31.16;33.97
26539;BME280;14205;43.200;24.170;2022-08-03T08:56:24;100054.25;;;31.23;34.10
26539;BME280;14205;43.200;24.170;2022-08-03T08:58:57;100043.84;;;31.11;34.02
26539;BME280;14205;43.200;24.170;2022-08-03T09:01:23;100043.97;;;31.70;33.26
26539;BME280;14205;43.200;24.170;2022-08-03T09:03:48;100037.25;;;31.36;33.96
26539;BME280;14205;43.200;24.170;2022-08-03T09:06:14;100034.44;;;31.41;33.16
26539;BME280;14205;43.200;24.170;2022-08-03T09:08:40;100034.03;;;32.18;32.84
26539;BME280;14205;43.200;24.170;2022-08-03T09:11:06;100035.44;;;32.56;32.02
26539;BME280;14205;43.200;24.170;2022-08-03T09:13:34;100031.53;;;32.35;32.33
26539;BME280;14205;43.200;24.170;2022-08-03T09:16:19;100041.91;;;32.07;32.44
26539;BME280;14205;43.200;24.170;2022-08-03T09:18:51;100028.81;;;32.35;32.35
26539;BME280;14205;43.200;24.170;2022-08-03T09:21:26;100030.03;;;31.89;33.14
26539;BME280;14205;43.200;24.170;2022-08-03T09:23:55;100033.06;;;32.15;33.00
26539;BME280;14205;43.200;24.170;2022-08-03T09:26:29;100036.19;;;32.70;32.73
26539;BME280;14205;43.200;24.170;2022-08-03T09:28:57;100020.28;;;33.33;31.22
26539;BME280;14205;43.200;24.170;2022-08-03T09:31:49;100033.50;;;34.00;29.82
26539;BME280;14205;43.200;24.170;2022-08-03T09:34:24;100024.53;;;34.46;28.91
26539;BME280;14205;43.200;24.170;2022-08-03T09:36:50;100024.84;;;34.62;29.08
26539;BME280;14205;43.200;24.170;2022-08-03T09:39:18;100024.56;;;35.05;28.14
26539;BME280;14205;43.200;24.170;2022-08-03T09:41:46;100023.94;;;35.16;28.02
26539;BME280;14205;43.200;24.170;2022-08-03T09:44:13;100018.75;;;34.64;28.25
26539;BME280;14205;43.200;24.170;2022-08-03T09:46:54;100023.16;;;34.91;27.90
26539;BME280;14205;43.200;24.170;2022-08-03T09:49:21;100014.59;;;34.50;28.20
26539;BME280;14205;43.200;24.170;2022-08-03T09:51:47;100016.91;;;34.82;28.52
26539;BME280;14205;43.200;24.170;2022-08-03T09:54:26;100014.63;;;34.84;28.02
26539;BME280;14205;43.200;24.170;2022-08-03T09:56:52;100010.13;;;35.38;27.54
26539;BME280;14205;43.200;24.170;2022-08-03T09:59:26;100004.47;;;35.43;27.29
26539;BME280;14205;43.200;24.170;2022-08-03T10:01:52;100006.75;;;35.33;27.91
26539;BME280;14205;43.200;24.170;2022-08-03T10:04:17;100002.13;;;35.08;28.00
26539;BME280;14205;43.200;24.170;2022-08-03T10:06:44;99995.88;;;34.74;28.64
26539;BME280;14205;43.200;24.170;2022-08-03T10:09:14;100005.03;;;35.65;27.26
26539;BME280;14205;43.200;24.170;2022-08-03T10:11:41;99993.94;;;35.78;28.92
26539;BME280;14205;43.200;24.170;2022-08-03T10:14:09;100001.16;;;36.20;26.52
26539;BME280;14205;43.200;24.170;2022-08-03T10:16:39;99994.84;;;36.28;26.72
26539;BME280;14205;43.200;24.170;2022-08-03T10:19:06;99985.34;;;35.43;28.97
26539;BME280;14205;43.200;24.170;2022-08-03T10:21:34;99987.59;;;35.95;28.13
26539;BME280;14205;43.200;24.170;2022-08-03T10:24:09;99977.84;;;36.42;26.84
26539;BME280;14205;43.200;24.170;2022-08-03T10:26:38;99990.44;;;36.84;26.84
26539;BME280;14205;43.200;24.170;2022-08-03T10:29:06;99984.81;;;37.01;26.83
26539;BME280;14205;43.200;24.170;2022-08-03T10:31:44;99979.47;;;36.84;27.04
26539;BME280;14205;43.200;24.170;2022-08-03T10:34:17;99984.47;;;36.82;26.41
26539;BME280;14205;43.200;24.170;2022-08-03T10:36:44;99967.84;;;36.46;26.35
26539;BME280;14205;43.200;24.170;2022-08-03T10:39:12;99974.69;;;37.01;25.88
26539;BME280;14205;43.200;24.170;2022-08-03T10:41:40;99974.44;;;37.06;25.89
26539;BME280;14205;43.200;24.170;2022-08-03T10:44:09;99969.81;;;36.66;26.00
26539;BME280;14205;43.200;24.170;2022-08-03T10:46:38;99964.44;;;36.49;26.31
26539;BME280;14205;43.200;24.170;2022-08-03T10:49:05;99959.59;;;36.75;25.69
26539;BME280;14205;43.200;24.170;2022-08-03T10:51:31;99951.88;;;36.48;26.15
26539;BME280;14205;43.200;24.170;2022-08-03T10:53:58;99961.03;;;36.52;26.45
26539;BME280;14205;43.200;24.170;2022-08-03T11:02:12;99945.56;;;37.96;24.37
26539;BME280;14205;43.200;24.170;2022-08-03T11:04:39;99946.34;;;37.97;24.45
26539;BME280;14205;43.200;24.170;2022-08-03T11:07:25;99935.91;;;37.78;24.93
26539;BME280;14205;43.200;24.170;2022-08-03T11:09:54;99936.84;;;37.82;25.82
26539;BME280;14205;43.200;24.170;2022-08-03T11:12:27;99935.69;;;38.19;24.65
26539;BME280;14205;43.200;24.170;2022-08-03T11:14:55;99941.06;;;38.39;24.13
26539;BME280;14205;43.200;24.170;2022-08-03T11:17:21;99933.44;;;38.60;23.85
26539;BME280;14205;43.200;24.170;2022-08-03T11:19:51;99933.75;;;38.82;24.23
26539;BME280;14205;43.200;24.170;2022-08-03T11:22:17;99929.09;;;38.98;24.06
26539;BME280;14205;43.200;24.170;2022-08-03T11:30:07;99893.63;;;39.35;21.85
26539;BME280;14205;43.200;24.170;2022-08-03T11:35:25;99891.69;;;40.16;21.86
26539;BME280;14205;43.200;24.170;2022-08-03T11:46:08;99888.84;;;40.65;22.53
26539;BME280;14205;43.200;24.170;2022-08-03T11:48:48;99881.53;;;40.54;20.91
26539;BME280;14205;43.200;24.170;2022-08-03T11:53:57;99874.28;;;40.46;21.59
26539;BME280;14205;43.200;24.170;2022-08-03T11:56:23;99872.88;;;39.68;21.92
26539;BME280;14205;43.200;24.170;2022-08-03T11:58:51;99862.28;;;40.01;21.52
26539;BME280;14205;43.200;24.170;2022-08-03T12:01:18;99860.75;;;38.81;22.62
26539;BME280;14205;43.200;24.170;2022-08-03T12:03:45;99854.81;;;38.52;23.40
26539;BME280;14205;43.200;24.170;2022-08-03T12:06:13;99853.81;;;39.29;21.97
26539;BME280;14205;43.200;24.170;2022-08-03T12:08:39;99849.25;;;38.64;23.37
26539;BME280;14205;43.200;24.170;2022-08-03T12:11:08;99847.56;;;38.32;22.93
26539;BME280;14205;43.200;24.170;2022-08-03T12:16:02;99848.47;;;40.16;21.11
26539;BME280;14205;43.200;24.170;2022-08-03T12:18:28;99845.88;;;40.79;19.78
26539;BME280;14205;43.200;24.170;2022-08-03T12:21:06;99847.78;;;40.97;19.66
26539;BME280;14205;43.200;24.170;2022-08-03T12:23:32;99850.22;;;41.21;19.59
26539;BME280;14205;43.200;24.170;2022-08-03T12:26:08;99835.38;;;41.51;19.48
26539;BME280;14205;43.200;24.170;2022-08-03T12:28:35;99842.75;;;41.69;19.14
26539;BME280;14205;43.200;24.170;2022-08-03T12:31:03;99842.56;;;42.07;18.67
26539;BME280;14205;43.200;24.170;2022-08-03T12:33:31;99842.50;;;42.03;18.00
26539;BME280;14205;43.200;24.170;2022-08-03T12:36:08;99835.66;;;42.23;18.58
26539;BME280;14205;43.200;24.170;2022-08-03T12:38:38;99830.41;;;41.60;18.39
26539;BME280;14205;43.200;24.170;2022-08-03T12:41:06;99835.06;;;41.82;18.94
26539;BME280;14205;43.200;24.170;2022-08-03T12:43:33;99831.56;;;41.59;18.23
26539;BME280;14205;43.200;24.170;2022-08-03T12:46:10;99832.88;;;41.21;19.14
26539;BME280;14205;43.200;24.170;2022-08-03T12:49:12;99828.03;;;41.59;18.66
26539;BME280;14205;43.200;24.170;2022-08-03T12:54:06;99816.16;;;40.69;20.33
26539;BME280;14205;43.200;24.170;2022-08-03T12:56:32;99820.13;;;40.91;19.63
26539;BME280;14205;43.200;24.170;2022-08-03T12:58:58;99824.13;;;40.74;20.89
26539;BME280;14205;43.200;24.170;2022-08-03T13:01:23;99815.25;;;41.73;19.13
26539;BME280;14205;43.200;24.170;2022-08-03T13:03:51;99818.50;;;42.37;18.74
26539;BME280;14205;43.200;24.170;2022-08-03T13:06:20;99822.66;;;42.53;18.29
26539;BME280;14205;43.200;24.170;2022-08-03T13:08:47;99819.59;;;41.74;19.38
26539;BME280;14205;43.200;24.170;2022-08-03T13:11:33;99819.34;;;40.71;20.63
26539;BME280;14205;43.200;24.170;2022-08-03T13:13:59;99816.84;;;39.42;22.34
26539;BME280;14205;43.200;24.170;2022-08-03T13:16:24;99813.69;;;39.25;22.00
26539;BME280;14205;43.200;24.170;2022-08-03T13:18:50;99801.69;;;39.02;21.89
26539;BME280;14205;43.200;24.170;2022-08-03T13:21:18;99809.03;;;39.59;21.05
26539;BME280;14205;43.200;24.170;2022-08-03T13:23:44;99810.56;;;39.91;21.25
26539;BME280;14205;43.200;24.170;2022-08-03T13:26:10;99812.84;;;40.42;21.49
26539;BME280;14205;43.200;24.170;2022-08-03T13:28:37;99812.97;;;40.86;20.49